sensor_id;sensor_type;location;lat;lon;timestamp;P1;durP1;ratioP1;P2;durP2;ratioP2
65145;SDS011;51730;56.950;24.126;2022-11-03T00:01:35;34.67;;;17.33;;
65145;SDS011;51730;56.950;24.126;2022-11-03T00:04:04;35.53;;;15.63;;
65145;SDS011;51730;56.950;24.126;2022-11-03T00:06:32;39.13;;;16.75;;
65145;SDS011;51730;56.950;24.126;2022-11-03T00:09:00;34.72;;;16.58;;
65145;SDS011;51730;56.950;24.126;2022-11-03T00:11:30;37.70;;;17.10;;
65145;SDS011;51730;56.950;24.126;2022-11-03T00:13:59;28.92;;;15.95;;
65145;SDS011;51730;56.950;24.126;2022-11-03T00:16:26;42.22;;;17.95;;
65145;SDS011;51730;56.950;24.126;2022-11-03T00:18:53;31.70;;;16.27;;
65145;SDS011;51730;56.950;24.126;2022-11-03T00:21:20;34.20;;;17.30;;
65145;SDS011;51730;56.950;24.126;2022-11-03T00:23:47;34.97;;;16.75;;
65145;SDS011;51730;56.950;24.126;2022-11-03T00:28:49;35.00;;;16.50;;
65145;SDS011;51730;56.950;24.126;2022-11-03T00:31:50;30.30;;;15.88;;
65145;SDS011;51730;56.950;24.126;2022-11-03T00:34:10;30.02;;;15.43;;
65145;SDS011;51730;56.950;24.126;2022-11-03T00:36:38;32.03;;;16.65;;
65145;SDS011;51730;56.950;24.126;2022-11-03T00:39:07;29.55;;;15.82;;
65145;SDS011;51730;56.950;24.126;2022-11-03T00:41:35;34.65;;;15.00;;
65145;SDS011;51730;56.950;24.126;2022-11-03T00:44:02;27.90;;;15.40;;
65145;SDS011;51730;56.950;24.126;2022-11-03T00:46:29;31.60;;;15.88;;
65145;SDS011;51730;56.950;24.126;2022-11-03T00:49:00;25.42;;;13.93;;
65145;SDS011;51730;56.950;24.126;2022-11-03T00:51:27;28.50;;;14.27;;
65145;SDS011;51730;56.950;24.126;2022-11-03T00:54:00;29.98;;;14.52;;
65145;SDS011;51730;56.950;24.126;2022-11-03T00:56:29;29.08;;;14.88;;
65145;SDS011;51730;56.950;24.126;2022-11-03T00:58:59;30.60;;;15.10;;
65145;SDS011;51730;56.950;24.126;2022-11-03T01:01:27;29.70;;;14.65;;
65145;SDS011;51730;56.950;24.126;2022-11-03T01:04:04;27.20;;;14.13;;
65145;SDS011;51730;56.950;24.126;2022-11-03T01:06:51;29.35;;;13.68;;
65145;SDS011;51730;56.950;24.126;2022-11-03T01:09:20;29.95;;;14.35;;
65145;SDS011;51730;56.950;24.126;2022-11-03T01:14:41;34.45;;;14.15;;
65145;SDS011;51730;56.950;24.126;2022-11-03T01:17:26;34.63;;;13.95;;
65145;SDS011;51730;56.950;24.126;2022-11-03T01:19:53;32.50;;;13.13;;
65145;SDS011;51730;56.950;24.126;2022-11-03T01:22:21;32.70;;;14.13;;
65145;SDS011;51730;56.950;24.126;2022-11-03T01:24:49;28.65;;;13.98;;
65145;SDS011;51730;56.950;24.126;2022-11-03T01:27:17;28.92;;;12.70;;
65145;SDS011;51730;56.950;24.126;2022-11-03T01:29:45;29.20;;;14.35;;
65145;SDS011;51730;56.950;24.126;2022-11-03T01:32:12;27.50;;;13.60;;
65145;SDS011;51730;56.950;24.126;2022-11-03T01:34:39;27.30;;;13.73;;
65145;SDS011;51730;56.950;24.126;2022-11-03T01:37:06;31.52;;;14.00;;
65145;SDS011;51730;56.950;24.126;2022-11-03T01:39:33;24.13;;;13.93;;
65145;SDS011;51730;56.950;24.126;2022-11-03T01:42:00;31.30;;;13.93;;
65145;SDS011;51730;56.950;24.126;2022-11-03T01:44:28;23.90;;;13.00;;
65145;SDS011;51730;56.950;24.126;2022-11-03T01:52:02;23.70;;;12.40;;
65145;SDS011;51730;56.950;24.126;2022-11-03T01:58:09;19.20;;;11.52;;
65145;SDS011;51730;56.950;24.126;2022-11-03T02:00:39;24.70;;;13.05;;
65145;SDS011;51730;56.950;24.126;2022-11-03T02:03:08;23.88;;;13.27;;
65145;SDS011;51730;56.950;24.126;2022-11-03T02:09:03;22.02;;;11.50;;
65145;SDS011;51730;56.950;24.126;2022-11-03T02:11:32;24.85;;;12.88;;
65145;SDS011;51730;56.950;24.126;2022-11-03T02:14:19;21.08;;;11.85;;
65145;SDS011;51730;56.950;24.126;2022-11-03T02:16:47;25.70;;;12.77;;
65145;SDS011;51730;56.950;24.126;2022-11-03T02:19:25;20.67;;;12.18;;
65145;SDS011;51730;56.950;24.126;2022-11-03T02:22:06;24.95;;;11.98;;
65145;SDS011;51730;56.950;24.126;2022-11-03T02:24:51;23.60;;;11.25;;
65145;SDS011;51730;56.950;24.126;2022-11-03T02:27:22;26.60;;;12.15;;
65145;SDS011;51730;56.950;24.126;2022-11-03T02:29:49;20.38;;;11.50;;
65145;SDS011;51730;56.950;24.126;2022-11-03T02:32:23;22.63;;;12.52;;
65145;SDS011;51730;56.950;24.126;2022-11-03T02:37:31;26.25;;;12.07;;
65145;SDS011;51730;56.950;24.126;2022-11-03T02:40:03;22.80;;;11.23;;
65145;SDS011;51730;56.950;24.126;2022-11-03T02:42:34;23.63;;;13.10;;
65145;SDS011;51730;56.950;24.126;2022-11-03T02:45:04;22.70;;;12.80;;
65145;SDS011;51730;56.950;24.126;2022-11-03T02:47:39;32.80;;;11.88;;
65145;SDS011;51730;56.950;24.126;2022-11-03T02:50:08;24.35;;;12.40;;
65145;SDS011;51730;56.950;24.126;2022-11-03T02:52:40;25.90;;;12.60;;
65145;SDS011;51730;56.950;24.126;2022-11-03T03:00:59;27.33;;;12.75;;
65145;SDS011;51730;56.950;24.126;2022-11-03T03:03:52;26.73;;;13.05;;
65145;SDS011;51730;56.950;24.126;2022-11-03T03:06:23;24.33;;;12.35;;
65145;SDS011;51730;56.950;24.126;2022-11-03T03:09:06;28.58;;;11.88;;
65145;SDS011;51730;56.950;24.126;2022-11-03T03:11:36;22.65;;;12.80;;
65145;SDS011;51730;56.950;24.126;2022-11-03T03:14:17;21.50;;;11.95;;
65145;SDS011;51730;56.950;24.126;2022-11-03T03:19:23;21.27;;;11.63;;
65145;SDS011;51730;56.950;24.126;2022-11-03T03:21:52;19.33;;;11.73;;
65145;SDS011;51730;56.950;24.126;2022-11-03T03:27:00;21.92;;;12.13;;
65145;SDS011;51730;56.950;24.126;2022-11-03T03:29:38;23.93;;;12.10;;
65145;SDS011;51730;56.950;24.126;2022-11-03T03:32:12;21.17;;;11.70;;
65145;SDS011;51730;56.950;24.126;2022-11-03T03:37:11;16.75;;;11.77;;
65145;SDS011;51730;56.950;24.126;2022-11-03T03:39:41;25.45;;;12.32;;
65145;SDS011;51730;56.950;24.126;2022-11-03T03:42:13;24.17;;;13.25;;
65145;SDS011;51730;56.950;24.126;2022-11-03T03:44:41;23.65;;;12.93;;
65145;SDS011;51730;56.950;24.126;2022-11-03T03:47:12;26.73;;;13.07;;
65145;SDS011;51730;56.950;24.126;2022-11-03T03:49:42;27.85;;;14.48;;
65145;SDS011;51730;56.950;24.126;2022-11-03T03:52:10;27.55;;;13.10;;
65145;SDS011;51730;56.950;24.126;2022-11-03T03:54:37;22.35;;;13.45;;
65145;SDS011;51730;56.950;24.126;2022-11-03T03:57:04;25.15;;;12.73;;
65145;SDS011;51730;56.950;24.126;2022-11-03T03:59:32;27.88;;;13.13;;
65145;SDS011;51730;56.950;24.126;2022-11-03T04:01:59;25.63;;;13.70;;
65145;SDS011;51730;56.950;24.126;2022-11-03T04:04:26;27.05;;;12.90;;
65145;SDS011;51730;56.950;24.126;2022-11-03T04:06:53;21.02;;;12.07;;
65145;SDS011;51730;56.950;24.126;2022-11-03T04:09:40;27.33;;;13.85;;
65145;SDS011;51730;56.950;24.126;2022-11-03T04:12:07;19.30;;;12.90;;
65145;SDS011;51730;56.950;24.126;2022-11-03T04:14:53;23.60;;;12.15;;
65145;SDS011;51730;56.950;24.126;2022-11-03T04:17:40;25.42;;;12.50;;
65145;SDS011;51730;56.950;24.126;2022-11-03T04:20:28;23.98;;;13.70;;
65145;SDS011;51730;56.950;24.126;2022-11-03T04:23:14;22.90;;;12.60;;
65145;SDS011;51730;56.950;24.126;2022-11-03T04:25:45;26.55;;;14.27;;
65145;SDS011;51730;56.950;24.126;2022-11-03T04:28:15;22.58;;;12.90;;
65145;SDS011;51730;56.950;24.126;2022-11-03T04:30:42;22.45;;;12.65;;
65145;SDS011;51730;56.950;24.126;2022-11-03T04:33:16;23.10;;;13.68;;
65145;SDS011;51730;56.950;24.126;2022-11-03T04:35:46;28.15;;;15.07;;
65145;SDS011;51730;56.950;24.126;2022-11-03T04:40:47;26.35;;;14.00;;
65145;SDS011;51730;56.950;24.126;2022-11-03T04:43:21;26.83;;;13.50;;
65145;SDS011;51730;56.950;24.126;2022-11-03T04:45:54;27.23;;;13.70;;
65145;SDS011;51730;56.950;24.126;2022-11-03T04:48:21;23.13;;;13.90;;
65145;SDS011;51730;56.950;24.126;2022-11-03T04:50:49;30.33;;;13.80;;
65145;SDS011;51730;56.950;24.126;2022-11-03T04:53:19;28.10;;;13.95;;
65145;SDS011;51730;56.950;24.126;2022-11-03T04:55:51;29.60;;;14.40;;
65145;SDS011;51730;56.950;24.126;2022-11-03T04:58:20;31.42;;;14.15;;
65145;SDS011;51730;56.950;24.126;2022-11-03T05:00:53;27.27;;;13.93;;
65145;SDS011;51730;56.950;24.126;2022-11-03T05:03:23;27.02;;;15.02;;
65145;SDS011;51730;56.950;24.126;2022-11-03T05:05:52;27.75;;;14.80;;
65145;SDS011;51730;56.950;24.126;2022-11-03T05:08:19;26.35;;;13.70;;
65145;SDS011;51730;56.950;24.126;2022-11-03T05:10:47;27.17;;;14.00;;
65145;SDS011;51730;56.950;24.126;2022-11-03T05:13:19;26.58;;;13.52;;
65145;SDS011;51730;56.950;24.126;2022-11-03T05:15:49;28.63;;;15.18;;
65145;SDS011;51730;56.950;24.126;2022-11-03T05:18:23;30.88;;;15.35;;
65145;SDS011;51730;56.950;24.126;2022-11-03T05:21:03;33.00;;;14.27;;
65145;SDS011;51730;56.950;24.126;2022-11-03T05:23:36;28.33;;;14.20;;
65145;SDS011;51730;56.950;24.126;2022-11-03T05:26:06;26.25;;;15.10;;
65145;SDS011;51730;56.950;24.126;2022-11-03T05:28:43;26.17;;;13.52;;
65145;SDS011;51730;56.950;24.126;2022-11-03T05:33:44;23.73;;;13.35;;
65145;SDS011;51730;56.950;24.126;2022-11-03T05:36:13;28.40;;;13.50;;
65145;SDS011;51730;56.950;24.126;2022-11-03T05:38:45;30.88;;;13.68;;
65145;SDS011;51730;56.950;24.126;2022-11-03T05:41:20;27.98;;;13.65;;
65145;SDS011;51730;56.950;24.126;2022-11-03T05:44:00;19.23;;;12.27;;
65145;SDS011;51730;56.950;24.126;2022-11-03T05:46:36;22.33;;;13.15;;
65145;SDS011;51730;56.950;24.126;2022-11-03T05:49:03;20.10;;;12.38;;
65145;SDS011;51730;56.950;24.126;2022-11-03T05:51:37;27.23;;;12.07;;
65145;SDS011;51730;56.950;24.126;2022-11-03T05:54:20;24.23;;;11.70;;
65145;SDS011;51730;56.950;24.126;2022-11-03T05:56:50;24.55;;;12.77;;
65145;SDS011;51730;56.950;24.126;2022-11-03T05:59:19;21.30;;;11.88;;
65145;SDS011;51730;56.950;24.126;2022-11-03T06:01:48;23.67;;;12.27;;
65145;SDS011;51730;56.950;24.126;2022-11-03T06:07:03;21.88;;;11.52;;
65145;SDS011;51730;56.950;24.126;2022-11-03T06:09:39;31.13;;;16.05;;
65145;SDS011;51730;56.950;24.126;2022-11-03T06:12:06;40.55;;;20.90;;
65145;SDS011;51730;56.950;24.126;2022-11-03T06:14:40;27.25;;;15.07;;
65145;SDS011;51730;56.950;24.126;2022-11-03T06:17:11;22.42;;;13.10;;
65145;SDS011;51730;56.950;24.126;2022-11-03T06:19:56;24.13;;;12.23;;
65145;SDS011;51730;56.950;24.126;2022-11-03T06:25:24;25.05;;;12.48;;
65145;SDS011;51730;56.950;24.126;2022-11-03T06:28:02;22.63;;;11.32;;
65145;SDS011;51730;56.950;24.126;2022-11-03T06:30:38;21.38;;;9.55;;
65145;SDS011;51730;56.950;24.126;2022-11-03T06:35:54;19.77;;;10.52;;
65145;SDS011;51730;56.950;24.126;2022-11-03T06:38:27;24.90;;;11.85;;
65145;SDS011;51730;56.950;24.126;2022-11-03T06:40:57;25.60;;;11.75;;
65145;SDS011;51730;56.950;24.126;2022-11-03T06:43:45;26.00;;;13.35;;
65145;SDS011;51730;56.950;24.126;2022-11-03T06:46:18;23.33;;;11.80;;
65145;SDS011;51730;56.950;24.126;2022-11-03T06:48:48;25.50;;;11.75;;
65145;SDS011;51730;56.950;24.126;2022-11-03T06:51:20;23.70;;;10.90;;
65145;SDS011;51730;56.950;24.126;2022-11-03T06:53:49;20.88;;;11.23;;
65145;SDS011;51730;56.950;24.126;2022-11-03T06:56:18;27.00;;;11.30;;
65145;SDS011;51730;56.950;24.126;2022-11-03T06:58:53;19.42;;;10.05;;
65145;SDS011;51730;56.950;24.126;2022-11-03T07:01:30;25.23;;;10.95;;
65145;SDS011;51730;56.950;24.126;2022-11-03T07:04:00;35.00;;;15.95;;
65145;SDS011;51730;56.950;24.126;2022-11-03T07:06:33;28.23;;;12.85;;
65145;SDS011;51730;56.950;24.126;2022-11-03T07:09:03;29.35;;;13.77;;
65145;SDS011;51730;56.950;24.126;2022-11-03T07:12:15;26.58;;;11.00;;
65145;SDS011;51730;56.950;24.126;2022-11-03T07:14:28;29.58;;;11.73;;
65145;SDS011;51730;56.950;24.126;2022-11-03T07:19:35;43.10;;;20.27;;
65145;SDS011;51730;56.950;24.126;2022-11-03T07:22:22;32.15;;;13.02;;
65145;SDS011;51730;56.950;24.126;2022-11-03T07:24:52;33.30;;;14.38;;
65145;SDS011;51730;56.950;24.126;2022-11-03T07:27:28;32.13;;;13.75;;
65145;SDS011;51730;56.950;24.126;2022-11-03T07:29:57;25.95;;;12.88;;
65145;SDS011;51730;56.950;24.126;2022-11-03T07:32:52;20.25;;;12.25;;
65145;SDS011;51730;56.950;24.126;2022-11-03T07:37:51;30.05;;;13.00;;
65145;SDS011;51730;56.950;24.126;2022-11-03T07:40:22;24.05;;;11.23;;
65145;SDS011;51730;56.950;24.126;2022-11-03T07:42:51;20.40;;;10.75;;
65145;SDS011;51730;56.950;24.126;2022-11-03T07:45:39;22.60;;;10.18;;
65145;SDS011;51730;56.950;24.126;2022-11-03T07:53:28;20.17;;;10.20;;
65145;SDS011;51730;56.950;24.126;2022-11-03T07:55:58;21.02;;;10.05;;
65145;SDS011;51730;56.950;24.126;2022-11-03T07:58:33;23.90;;;11.13;;
65145;SDS011;51730;56.950;24.126;2022-11-03T08:01:02;22.48;;;11.57;;
65145;SDS011;51730;56.950;24.126;2022-11-03T08:04:04;24.67;;;11.93;;
65145;SDS011;51730;56.950;24.126;2022-11-03T08:06:51;22.10;;;11.05;;
65145;SDS011;51730;56.950;24.126;2022-11-03T08:09:18;22.10;;;9.82;;
65145;SDS011;51730;56.950;24.126;2022-11-03T08:11:45;23.10;;;10.25;;
65145;SDS011;51730;56.950;24.126;2022-11-03T08:14:12;16.95;;;9.30;;
65145;SDS011;51730;56.950;24.126;2022-11-03T08:16:39;18.83;;;10.00;;
65145;SDS011;51730;56.950;24.126;2022-11-03T08:19:06;22.63;;;10.65;;
65145;SDS011;51730;56.950;24.126;2022-11-03T08:21:33;24.90;;;11.75;;
65145;SDS011;51730;56.950;24.126;2022-11-03T08:24:00;19.55;;;10.20;;
65145;SDS011;51730;56.950;24.126;2022-11-03T08:26:27;22.35;;;11.55;;
65145;SDS011;51730;56.950;24.126;2022-11-03T08:28:54;25.27;;;10.95;;
65145;SDS011;51730;56.950;24.126;2022-11-03T08:31:21;36.53;;;11.75;;
65145;SDS011;51730;56.950;24.126;2022-11-03T08:33:48;24.85;;;12.13;;
65145;SDS011;51730;56.950;24.126;2022-11-03T08:36:14;21.00;;;9.85;;
65145;SDS011;51730;56.950;24.126;2022-11-03T08:38:42;24.50;;;10.35;;
65145;SDS011;51730;56.950;24.126;2022-11-03T08:41:09;27.65;;;11.00;;
65145;SDS011;51730;56.950;24.126;2022-11-03T08:43:36;21.75;;;8.43;;
65145;SDS011;51730;56.950;24.126;2022-11-03T08:46:02;29.20;;;14.07;;
65145;SDS011;51730;56.950;24.126;2022-11-03T08:48:42;30.33;;;15.13;;
65145;SDS011;51730;56.950;24.126;2022-11-03T08:51:09;22.33;;;10.45;;
65145;SDS011;51730;56.950;24.126;2022-11-03T08:53:39;21.92;;;9.07;;
65145;SDS011;51730;56.950;24.126;2022-11-03T08:56:08;17.95;;;9.57;;
65145;SDS011;51730;56.950;24.126;2022-11-03T08:58:38;18.90;;;8.85;;
65145;SDS011;51730;56.950;24.126;2022-11-03T09:01:06;27.80;;;11.65;;
65145;SDS011;51730;56.950;24.126;2022-11-03T09:03:33;23.00;;;9.68;;
65145;SDS011;51730;56.950;24.126;2022-11-03T09:06:00;20.45;;;9.27;;
65145;SDS011;51730;56.950;24.126;2022-11-03T09:08:27;19.42;;;9.68;;
65145;SDS011;51730;56.950;24.126;2022-11-03T09:11:13;20.05;;;9.00;;
65145;SDS011;51730;56.950;24.126;2022-11-03T09:13:40;22.70;;;8.80;;
65145;SDS011;51730;56.950;24.126;2022-11-03T09:16:07;21.83;;;8.43;;
65145;SDS011;51730;56.950;24.126;2022-11-03T09:18:34;20.10;;;10.05;;
65145;SDS011;51730;56.950;24.126;2022-11-03T09:21:01;18.25;;;7.93;;
65145;SDS011;51730;56.950;24.126;2022-11-03T09:23:28;19.77;;;8.30;;
65145;SDS011;51730;56.950;24.126;2022-11-03T09:25:54;23.88;;;12.05;;
65145;SDS011;51730;56.950;24.126;2022-11-03T09:28:21;23.95;;;8.38;;
65145;SDS011;51730;56.950;24.126;2022-11-03T09:30:48;21.85;;;8.45;;
65145;SDS011;51730;56.950;24.126;2022-11-03T09:33:15;18.27;;;7.90;;
65145;SDS011;51730;56.950;24.126;2022-11-03T09:35:42;17.65;;;7.38;;
65145;SDS011;51730;56.950;24.126;2022-11-03T09:38:08;17.48;;;7.18;;
65145;SDS011;51730;56.950;24.126;2022-11-03T09:40:35;15.98;;;7.40;;
65145;SDS011;51730;56.950;24.126;2022-11-03T09:43:02;17.77;;;8.80;;
65145;SDS011;51730;56.950;24.126;2022-11-03T09:45:30;19.83;;;7.68;;
65145;SDS011;51730;56.950;24.126;2022-11-03T09:47:57;14.68;;;7.57;;
65145;SDS011;51730;56.950;24.126;2022-11-03T09:50:24;17.00;;;7.90;;
65145;SDS011;51730;56.950;24.126;2022-11-03T09:52:51;17.63;;;7.88;;
65145;SDS011;51730;56.950;24.126;2022-11-03T09:55:22;22.73;;;9.43;;
65145;SDS011;51730;56.950;24.126;2022-11-03T09:57:58;18.73;;;9.77;;
65145;SDS011;51730;56.950;24.126;2022-11-03T10:00:26;22.63;;;9.75;;
65145;SDS011;51730;56.950;24.126;2022-11-03T10:02:53;20.77;;;8.95;;
65145;SDS011;51730;56.950;24.126;2022-11-03T10:05:22;19.90;;;7.75;;
65145;SDS011;51730;56.950;24.126;2022-11-03T10:07:51;27.50;;;9.75;;
65145;SDS011;51730;56.950;24.126;2022-11-03T10:10:21;29.38;;;16.73;;
65145;SDS011;51730;56.950;24.126;2022-11-03T10:12:49;17.17;;;8.15;;
65145;SDS011;51730;56.950;24.126;2022-11-03T10:15:18;14.70;;;8.30;;
65145;SDS011;51730;56.950;24.126;2022-11-03T10:17:48;17.02;;;7.53;;
65145;SDS011;51730;56.950;24.126;2022-11-03T10:20:17;23.85;;;7.70;;
65145;SDS011;51730;56.950;24.126;2022-11-03T10:22:46;16.77;;;7.88;;
65145;SDS011;51730;56.950;24.126;2022-11-03T10:28:15;17.65;;;6.93;;
65145;SDS011;51730;56.950;24.126;2022-11-03T10:30:55;21.02;;;9.52;;
65145;SDS011;51730;56.950;24.126;2022-11-03T10:33:40;18.98;;;9.02;;
65145;SDS011;51730;56.950;24.126;2022-11-03T10:38:44;21.42;;;8.45;;
65145;SDS011;51730;56.950;24.126;2022-11-03T10:46:38;13.18;;;5.25;;
65145;SDS011;51730;56.950;24.126;2022-11-03T10:49:21;14.15;;;5.90;;
65145;SDS011;51730;56.950;24.126;2022-11-03T10:51:51;14.00;;;6.05;;
65145;SDS011;51730;56.950;24.126;2022-11-03T10:56:50;12.35;;;5.70;;
65145;SDS011;51730;56.950;24.126;2022-11-03T10:59:18;9.50;;;4.78;;
65145;SDS011;51730;56.950;24.126;2022-11-03T11:01:47;13.82;;;5.78;;
65145;SDS011;51730;56.950;24.126;2022-11-03T11:04:15;11.80;;;5.68;;
65145;SDS011;51730;56.950;24.126;2022-11-03T11:06:44;14.45;;;6.15;;
65145;SDS011;51730;56.950;24.126;2022-11-03T11:09:12;12.35;;;5.32;;
65145;SDS011;51730;56.950;24.126;2022-11-03T11:16:54;13.50;;;5.63;;
65145;SDS011;51730;56.950;24.126;2022-11-03T11:19:22;18.77;;;11.13;;
65145;SDS011;51730;56.950;24.126;2022-11-03T11:37:47;15.35;;;6.50;;
65145;SDS011;51730;56.950;24.126;2022-11-03T11:48:37;28.02;;;12.93;;
65145;SDS011;51730;56.950;24.126;2022-11-03T11:51:08;15.70;;;6.97;;
65145;SDS011;51730;56.950;24.126;2022-11-03T11:53:37;11.98;;;5.63;;
65145;SDS011;51730;56.950;24.126;2022-11-03T11:56:08;8.88;;;5.25;;
65145;SDS011;51730;56.950;24.126;2022-11-03T12:04:04;16.80;;;6.65;;
65145;SDS011;51730;56.950;24.126;2022-11-03T12:06:40;10.07;;;4.40;;
65145;SDS011;51730;56.950;24.126;2022-11-03T12:16:51;13.70;;;5.88;;
65145;SDS011;51730;56.950;24.126;2022-11-03T12:22:47;18.33;;;8.15;;
65145;SDS011;51730;56.950;24.126;2022-11-03T12:24:55;9.63;;;4.65;;
65145;SDS011;51730;56.950;24.126;2022-11-03T12:29:57;14.13;;;4.90;;
65145;SDS011;51730;56.950;24.126;2022-11-03T12:32:25;12.48;;;4.65;;
65145;SDS011;51730;56.950;24.126;2022-11-03T12:35:01;7.88;;;4.55;;
65145;SDS011;51730;56.950;24.126;2022-11-03T12:37:29;12.38;;;4.63;;
65145;SDS011;51730;56.950;24.126;2022-11-03T12:39:56;13.45;;;5.55;;
65145;SDS011;51730;56.950;24.126;2022-11-03T12:42:23;10.43;;;4.80;;
65145;SDS011;51730;56.950;24.126;2022-11-03T12:44:51;15.40;;;5.40;;
65145;SDS011;51730;56.950;24.126;2022-11-03T12:47:18;15.07;;;4.90;;
65145;SDS011;51730;56.950;24.126;2022-11-03T12:49:46;11.82;;;4.32;;
65145;SDS011;51730;56.950;24.126;2022-11-03T12:52:13;11.63;;;4.65;;
65145;SDS011;51730;56.950;24.126;2022-11-03T12:54:40;13.52;;;5.03;;
65145;SDS011;51730;56.950;24.126;2022-11-03T12:57:07;12.15;;;4.70;;
65145;SDS011;51730;56.950;24.126;2022-11-03T12:59:34;9.80;;;4.32;;
65145;SDS011;51730;56.950;24.126;2022-11-03T13:02:02;16.15;;;4.57;;
65145;SDS011;51730;56.950;24.126;2022-11-03T13:04:29;12.38;;;4.60;;
65145;SDS011;51730;56.950;24.126;2022-11-03T13:06:56;9.43;;;4.03;;
65145;SDS011;51730;56.950;24.126;2022-11-03T13:09:23;8.68;;;3.63;;
65145;SDS011;51730;56.950;24.126;2022-11-03T13:11:50;5.90;;;3.40;;
65145;SDS011;51730;56.950;24.126;2022-11-03T13:14:35;13.52;;;4.13;;
65145;SDS011;51730;56.950;24.126;2022-11-03T13:17:02;5.78;;;3.10;;
65145;SDS011;51730;56.950;24.126;2022-11-03T13:19:29;5.32;;;3.30;;
65145;SDS011;51730;56.950;24.126;2022-11-03T13:21:56;8.10;;;3.70;;
65145;SDS011;51730;56.950;24.126;2022-11-03T13:24:23;9.80;;;4.07;;
65145;SDS011;51730;56.950;24.126;2022-11-03T13:26:50;10.43;;;3.65;;
65145;SDS011;51730;56.950;24.126;2022-11-03T13:29:17;9.52;;;3.13;;
65145;SDS011;51730;56.950;24.126;2022-11-03T13:31:44;8.88;;;2.58;;
65145;SDS011;51730;56.950;24.126;2022-11-03T13:34:10;9.00;;;2.97;;
65145;SDS011;51730;56.950;24.126;2022-11-03T13:36:37;9.57;;;3.65;;
65145;SDS011;51730;56.950;24.126;2022-11-03T13:39:04;10.23;;;3.55;;
65145;SDS011;51730;56.950;24.126;2022-11-03T13:41:31;23.42;;;13.13;;
65145;SDS011;51730;56.950;24.126;2022-11-03T13:43:58;21.17;;;11.10;;
65145;SDS011;51730;56.950;24.126;2022-11-03T13:46:25;10.63;;;3.83;;
65145;SDS011;51730;56.950;24.126;2022-11-03T13:48:52;17.63;;;5.43;;
65145;SDS011;51730;56.950;24.126;2022-11-03T13:51:39;15.85;;;6.47;;
65145;SDS011;51730;56.950;24.126;2022-11-03T13:54:06;17.70;;;6.55;;
65145;SDS011;51730;56.950;24.126;2022-11-03T13:56:53;19.73;;;9.98;;
65145;SDS011;51730;56.950;24.126;2022-11-03T13:59:39;11.05;;;5.15;;
65145;SDS011;51730;56.950;24.126;2022-11-03T14:02:07;8.75;;;5.07;;
65145;SDS011;51730;56.950;24.126;2022-11-03T14:04:55;11.98;;;4.13;;
65145;SDS011;51730;56.950;24.126;2022-11-03T14:07:22;8.05;;;3.55;;
65145;SDS011;51730;56.950;24.126;2022-11-03T14:09:49;8.98;;;3.45;;
65145;SDS011;51730;56.950;24.126;2022-11-03T14:12:16;12.40;;;4.30;;
65145;SDS011;51730;56.950;24.126;2022-11-03T14:15:00;12.13;;;5.75;;
65145;SDS011;51730;56.950;24.126;2022-11-03T14:17:30;28.13;;;15.82;;
65145;SDS011;51730;56.950;24.126;2022-11-03T14:19:57;13.38;;;6.57;;
65145;SDS011;51730;56.950;24.126;2022-11-03T14:22:29;12.07;;;5.00;;
65145;SDS011;51730;56.950;24.126;2022-11-03T14:24:57;11.38;;;5.25;;
65145;SDS011;51730;56.950;24.126;2022-11-03T14:27:24;12.73;;;4.65;;
65145;SDS011;51730;56.950;24.126;2022-11-03T14:29:51;11.75;;;4.90;;
65145;SDS011;51730;56.950;24.126;2022-11-03T14:32:18;12.38;;;5.72;;
65145;SDS011;51730;56.950;24.126;2022-11-03T14:34:46;9.88;;;4.50;;
65145;SDS011;51730;56.950;24.126;2022-11-03T14:37:14;19.27;;;9.60;;
65145;SDS011;51730;56.950;24.126;2022-11-03T14:39:41;11.18;;;7.70;;
65145;SDS011;51730;56.950;24.126;2022-11-03T14:42:09;12.57;;;5.97;;
65145;SDS011;51730;56.950;24.126;2022-11-03T14:44:42;12.68;;;4.85;;
65145;SDS011;51730;56.950;24.126;2022-11-03T14:47:11;15.77;;;7.05;;
65145;SDS011;51730;56.950;24.126;2022-11-03T14:49:47;12.10;;;5.43;;
65145;SDS011;51730;56.950;24.126;2022-11-03T14:52:14;16.05;;;5.60;;
65145;SDS011;51730;56.950;24.126;2022-11-03T14:54:42;10.25;;;5.63;;
65145;SDS011;51730;56.950;24.126;2022-11-03T14:57:09;12.10;;;4.90;;
65145;SDS011;51730;56.950;24.126;2022-11-03T14:59:36;13.63;;;5.22;;
65145;SDS011;51730;56.950;24.126;2022-11-03T15:02:03;12.80;;;5.63;;
65145;SDS011;51730;56.950;24.126;2022-11-03T15:04:31;11.55;;;5.55;;
65145;SDS011;51730;56.950;24.126;2022-11-03T15:06:58;18.17;;;9.27;;
65145;SDS011;51730;56.950;24.126;2022-11-03T15:09:25;18.45;;;7.53;;
65145;SDS011;51730;56.950;24.126;2022-11-03T15:11:52;9.25;;;6.10;;
65145;SDS011;51730;56.950;24.126;2022-11-03T15:14:19;16.95;;;6.93;;
65145;SDS011;51730;56.950;24.126;2022-11-03T15:16:46;12.65;;;7.00;;
65145;SDS011;51730;56.950;24.126;2022-11-03T15:19:13;25.25;;;10.38;;
65145;SDS011;51730;56.950;24.126;2022-11-03T15:21:40;44.10;;;21.65;;
65145;SDS011;51730;56.950;24.126;2022-11-03T15:24:07;27.55;;;12.93;;
65145;SDS011;51730;56.950;24.126;2022-11-03T15:26:54;16.55;;;9.55;;
65145;SDS011;51730;56.950;24.126;2022-11-03T15:29:21;21.80;;;9.82;;
65145;SDS011;51730;56.950;24.126;2022-11-03T15:31:49;18.60;;;11.13;;
65145;SDS011;51730;56.950;24.126;2022-11-03T15:34:16;31.83;;;17.55;;
65145;SDS011;51730;56.950;24.126;2022-11-03T15:36:43;33.67;;;16.40;;
65145;SDS011;51730;56.950;24.126;2022-11-03T15:39:10;27.35;;;12.77;;
65145;SDS011;51730;56.950;24.126;2022-11-03T15:41:38;20.13;;;11.10;;
65145;SDS011;51730;56.950;24.126;2022-11-03T15:44:05;22.38;;;10.07;;
65145;SDS011;51730;56.950;24.126;2022-11-03T15:46:32;22.23;;;9.90;;
65145;SDS011;51730;56.950;24.126;2022-11-03T15:49:01;27.55;;;12.68;;
65145;SDS011;51730;56.950;24.126;2022-11-03T15:51:28;23.73;;;10.90;;
65145;SDS011;51730;56.950;24.126;2022-11-03T15:53:55;32.05;;;12.88;;
65145;SDS011;51730;56.950;24.126;2022-11-03T15:56:27;39.97;;;19.77;;
65145;SDS011;51730;56.950;24.126;2022-11-03T15:58:55;32.53;;;15.47;;
65145;SDS011;51730;56.950;24.126;2022-11-03T16:01:22;21.00;;;10.55;;
65145;SDS011;51730;56.950;24.126;2022-11-03T16:03:49;23.45;;;10.98;;
65145;SDS011;51730;56.950;24.126;2022-11-03T16:06:16;30.35;;;11.48;;
65145;SDS011;51730;56.950;24.126;2022-11-03T16:08:43;27.05;;;10.90;;
65145;SDS011;51730;56.950;24.126;2022-11-03T16:11:10;22.10;;;13.40;;
65145;SDS011;51730;56.950;24.126;2022-11-03T16:13:37;28.45;;;13.38;;
65145;SDS011;51730;56.950;24.126;2022-11-03T16:16:04;20.67;;;11.38;;
65145;SDS011;51730;56.950;24.126;2022-11-03T16:18:32;21.50;;;11.77;;
65145;SDS011;51730;56.950;24.126;2022-11-03T16:20:59;29.75;;;12.90;;
65145;SDS011;51730;56.950;24.126;2022-11-03T16:23:26;25.38;;;11.40;;
65145;SDS011;51730;56.950;24.126;2022-11-03T16:25:53;25.73;;;13.05;;
65145;SDS011;51730;56.950;24.126;2022-11-03T16:28:20;39.35;;;17.23;;
65145;SDS011;51730;56.950;24.126;2022-11-03T16:30:48;29.98;;;16.83;;
65145;SDS011;51730;56.950;24.126;2022-11-03T16:33:19;27.02;;;14.90;;